createdAt,value
2023-05-14T00:02:08.375Z,83.52
2023-05-14T00:04:38.504Z,81.45
2023-05-14T00:07:05.538Z,78.34
2023-05-14T00:09:33.994Z,80.54
2023-05-14T00:12:01.361Z,78.24
2023-05-14T00:14:29.530Z,79.05
2023-05-14T00:16:56.620Z,79.48
2023-05-14T00:19:26.340Z,75.81
2023-05-14T00:21:53.610Z,73.65
2023-05-14T00:24:23.406Z,73.41
2023-05-14T00:26:52.220Z,75.50
2023-05-14T00:29:20.884Z,74.64
2023-05-14T00:31:48.828Z,76.01
2023-05-14T00:34:20.769Z,75.38
2023-05-14T00:36:51.761Z,72.91
2023-05-14T00:39:20.451Z,71.57
2023-05-14T00:41:48.636Z,70.79
2023-05-14T00:44:18.511Z,71.64
2023-05-14T00:46:46.829Z,72.95
2023-05-14T00:49:14.005Z,71.61
2023-05-14T00:51:43.543Z,72.55
2023-05-14T00:54:11.047Z,78.13
2023-05-14T00:56:38.401Z,78.15
2023-05-14T00:59:05.827Z,73.71
2023-05-14T01:01:33.562Z,77.96
2023-05-14T01:04:00.763Z,77.56
2023-05-14T01:06:46.597Z,77.24
2023-05-14T01:09:19.337Z,78.73
2023-05-14T01:12:28.120Z,75.14
2023-05-14T01:14:59.825Z,73.15
2023-05-14T01:17:28.600Z,71.76
2023-05-14T01:19:55.734Z,80.16
2023-05-14T01:22:23.921Z,81.24
2023-05-14T01:24:51.399Z,79.69
2023-05-14T01:27:38.513Z,75.58
2023-05-14T01:30:17.969Z,76.47
2023-05-14T01:32:45.180Z,81.70
2023-05-14T01:35:12.710Z,83.52
2023-05-14T01:37:39.829Z,80.46
2023-05-14T01:40:09.252Z,79.41
2023-05-14T01:42:47.968Z,76.57
2023-05-14T01:45:15.706Z,74.78
2023-05-14T01:47:44.717Z,73.19
2023-05-14T01:50:11.602Z,77.85
2023-05-14T01:52:38.353Z,82.76
2023-05-14T01:55:08.992Z,84.46
2023-05-14T01:57:39.014Z,86.16
2023-05-14T02:00:06.600Z,85.34
2023-05-14T02:02:36.367Z,86.20
2023-05-14T02:05:05.528Z,88.27
2023-05-14T02:07:35.669Z,88.93
2023-05-14T02:10:03.809Z,85.46
2023-05-14T02:12:31.633Z,87.09
2023-05-14T02:15:00.384Z,86.18
2023-05-14T02:17:27.457Z,85.19
2023-05-14T02:19:54.972Z,85.26
2023-05-14T02:22:24.530Z,84.89
2023-05-14T02:24:51.247Z,85.54
2023-05-14T02:27:18.358Z,86.24
2023-05-14T02:29:47.317Z,85.70
2023-05-14T02:32:14.403Z,84.51
2023-05-14T02:34:42.335Z,84.86
2023-05-14T02:37:09.803Z,84.79
2023-05-14T02:39:39.027Z,85.08
2023-05-14T02:42:06.935Z,85.15
2023-05-14T02:44:34.064Z,84.51
2023-05-14T02:47:04.024Z,83.84
2023-05-14T02:49:35.062Z,84.00
2023-05-14T02:52:02.218Z,83.99
2023-05-14T02:54:29.457Z,84.79
2023-05-14T02:56:59.250Z,85.94
2023-05-14T02:59:29.190Z,86.20
2023-05-14T03:01:58.600Z,85.56
2023-05-14T03:04:28.840Z,85.81
2023-05-14T03:06:55.807Z,85.04
2023-05-14T03:09:23.416Z,82.97
2023-05-14T03:11:51.381Z,80.94
2023-05-14T03:14:18.138Z,79.09
2023-05-14T03:16:45.690Z,77.68
2023-05-14T03:19:14.522Z,79.80
2023-05-14T03:21:41.563Z,78.97
2023-05-14T03:24:10.322Z,78.46
2023-05-14T03:26:38.349Z,80.62
2023-05-14T03:29:08.011Z,79.65
2023-05-14T03:31:34.824Z,78.78
2023-05-14T03:34:01.751Z,75.55
2023-05-14T03:36:29.532Z,73.22
2023-05-14T03:38:56.736Z,72.35
2023-05-14T03:41:24.263Z,78.35
2023-05-14T03:43:56.487Z,75.65
2023-05-14T03:46:26.660Z,76.80
2023-05-14T03:48:54.640Z,74.86
2023-05-14T03:51:22.219Z,73.29
2023-05-14T03:53:51.770Z,72.09
2023-05-14T03:56:21.922Z,76.27
2023-05-14T03:58:52.921Z,80.02
2023-05-14T04:01:23.822Z,79.69
2023-05-14T04:03:53.774Z,80.61
2023-05-14T04:06:22.272Z,78.97
2023-05-14T04:08:49.451Z,81.78
2023-05-14T04:11:16.704Z,83.07
2023-05-14T04:13:45.652Z,84.11
2023-05-14T04:16:15.346Z,83.37
2023-05-14T04:18:42.590Z,84.46
2023-05-14T04:21:11.924Z,85.45
2023-05-14T04:23:40.145Z,84.55
2023-05-14T04:26:08.076Z,84.86
2023-05-14T04:28:36.465Z,85.47
2023-05-14T04:31:03.834Z,83.38
2023-05-14T04:33:30.604Z,80.59
2023-05-14T04:35:57.784Z,80.56
2023-05-14T04:38:24.913Z,82.61
2023-05-14T04:40:51.666Z,80.66
2023-05-14T04:43:18.824Z,81.62
2023-05-14T04:45:45.531Z,81.03
2023-05-14T04:48:12.308Z,79.79
2023-05-14T04:50:39.413Z,79.25
2023-05-14T04:53:08.949Z,80.69
2023-05-14T04:55:36.314Z,80.87
2023-05-14T04:58:03.107Z,80.31
2023-05-14T05:00:32.579Z,77.49
2023-05-14T05:03:01.133Z,81.11
2023-05-14T05:05:28.267Z,81.82
2023-05-14T05:07:57.848Z,83.46
2023-05-14T05:10:24.978Z,82.99
2023-05-14T05:12:52.031Z,84.92
2023-05-14T05:15:21.716Z,84.09
2023-05-14T05:17:50.036Z,84.07
2023-05-14T05:20:17.357Z,84.53
2023-05-14T05:22:44.091Z,85.15
2023-05-14T05:25:10.852Z,85.49
2023-05-14T05:27:40.653Z,85.41
2023-05-14T05:30:09.579Z,84.68
2023-05-14T05:32:36.782Z,83.99
2023-05-14T05:35:03.548Z,84.58
2023-05-14T05:37:30.990Z,83.58
2023-05-14T05:40:00.783Z,83.67
2023-05-14T05:42:27.518Z,84.07
2023-05-14T05:44:54.422Z,84.74
2023-05-14T05:47:21.626Z,84.09
2023-05-14T05:49:48.769Z,84.52
2023-05-14T05:52:15.876Z,83.71
2023-05-14T05:54:45.490Z,84.74
2023-05-14T05:57:12.620Z,84.39
2023-05-14T05:59:40.783Z,83.27
2023-05-14T06:02:10.331Z,82.75
2023-05-14T06:04:37.483Z,83.04
2023-05-14T06:07:05.275Z,81.71
2023-05-14T06:09:31.971Z,79.57
2023-05-14T06:11:59.404Z,79.08
2023-05-14T06:14:26.514Z,79.28
2023-05-14T06:16:53.763Z,81.69
2023-05-14T06:19:21.035Z,82.18
2023-05-14T06:21:50.382Z,82.08
2023-05-14T06:24:17.499Z,84.01
2023-05-14T06:26:44.227Z,84.38
2023-05-14T06:29:11.359Z,83.77
2023-05-14T06:31:40.647Z,83.10
2023-05-14T06:34:10.242Z,82.86
2023-05-14T06:36:39.831Z,81.41
2023-05-14T06:39:06.953Z,82.30
2023-05-14T06:41:36.316Z,82.99
2023-05-14T06:44:03.993Z,83.23
2023-05-14T06:46:31.140Z,82.83
2023-05-14T06:49:00.987Z,83.00
2023-05-14T06:51:28.238Z,82.13
2023-05-14T06:53:55.696Z,80.79
2023-05-14T06:56:22.546Z,79.91
2023-05-14T06:58:49.694Z,80.56
2023-05-14T07:01:16.860Z,78.74
2023-05-14T07:03:44.016Z,80.17
2023-05-14T07:06:12.507Z,77.14
2023-05-14T07:08:40.820Z,76.76
2023-05-14T07:11:07.949Z,78.54
2023-05-14T07:13:34.708Z,78.66
2023-05-14T07:16:01.426Z,79.19
2023-05-14T07:18:28.581Z,76.69
2023-05-14T07:20:55.782Z,77.56
2023-05-14T07:23:22.932Z,77.70
2023-05-14T07:25:50.739Z,77.65
2023-05-14T07:28:18.486Z,75.44
2023-05-14T07:30:45.704Z,76.84
2023-05-14T07:33:15.224Z,75.73
2023-05-14T07:35:43.310Z,75.19
2023-05-14T07:38:10.477Z,76.16
2023-05-14T07:40:37.624Z,73.88
2023-05-14T07:43:07.350Z,73.70
2023-05-14T07:45:34.504Z,73.21
2023-05-14T07:48:01.844Z,73.03
2023-05-14T07:50:28.748Z,72.60
2023-05-14T07:52:55.872Z,71.32
2023-05-14T07:55:22.635Z,71.04
2023-05-14T07:57:50.060Z,73.54
2023-05-14T08:00:16.898Z,73.06
2023-05-14T08:02:44.561Z,72.95
2023-05-14T08:05:11.509Z,72.12
2023-05-14T08:07:38.312Z,69.90
2023-05-14T08:10:08.538Z,71.94
2023-05-14T08:12:35.943Z,68.37
2023-05-14T08:15:03.177Z,69.56
2023-05-14T08:17:30.300Z,67.75
2023-05-14T08:19:58.521Z,67.92
2023-05-14T08:22:26.399Z,65.33
2023-05-14T08:24:54.498Z,65.69
2023-05-14T08:27:22.565Z,67.19
2023-05-14T08:29:49.716Z,66.06
2023-05-14T08:32:23.245Z,64.05
2023-05-14T08:34:50.848Z,66.13
2023-05-14T08:37:20.632Z,66.82
2023-05-14T08:39:47.773Z,65.79
2023-05-14T08:42:14.918Z,66.46
2023-05-14T08:44:56.740Z,64.16
2023-05-14T08:47:26.555Z,62.01
2023-05-14T08:50:00.983Z,62.06
2023-05-14T08:52:27.664Z,58.62
2023-05-14T08:54:58.873Z,60.70
2023-05-14T08:57:25.663Z,57.62
2023-05-14T08:59:53.035Z,59.48
2023-05-14T09:02:29.970Z,58.46
2023-05-14T09:04:58.364Z,58.67
2023-05-14T09:07:25.111Z,58.36
2023-05-14T09:09:52.078Z,61.03
2023-05-14T09:12:18.988Z,59.01
2023-05-14T09:14:45.797Z,55.15
2023-05-14T09:17:13.698Z,56.54
2023-05-14T09:19:44.023Z,58.06
2023-05-14T09:22:14.738Z,61.07
2023-05-14T09:24:41.467Z,58.50
2023-05-14T09:27:18.048Z,56.93
2023-05-14T09:29:45.158Z,54.31
2023-05-14T09:32:12.249Z,57.02
2023-05-14T09:34:42.112Z,55.30
2023-05-14T09:37:11.954Z,56.25
2023-05-14T09:39:40.052Z,57.89
2023-05-14T09:42:07.546Z,54.85
2023-05-14T09:44:34.678Z,55.20
2023-05-14T09:47:01.765Z,53.50
2023-05-14T09:49:28.989Z,53.08
2023-05-14T09:51:57.200Z,53.80
2023-05-14T09:54:25.001Z,54.62
2023-05-14T09:56:53.854Z,49.72
2023-05-14T09:59:22.087Z,52.35
2023-05-14T10:01:49.201Z,50.31
2023-05-14T10:04:16.319Z,52.81
2023-05-14T10:06:46.067Z,52.56
2023-05-14T10:09:13.270Z,52.50
2023-05-14T10:11:44.472Z,53.22
2023-05-14T10:14:18.601Z,52.24
2023-05-14T10:16:52.317Z,56.01
2023-05-14T10:19:21.228Z,55.18
2023-05-14T10:21:53.261Z,50.64
2023-05-14T10:24:21.355Z,53.29
2023-05-14T10:26:48.056Z,54.15
2023-05-14T10:29:14.784Z,54.28
2023-05-14T10:31:54.347Z,57.87
2023-05-14T10:34:35.838Z,55.10
2023-05-14T10:37:02.542Z,56.47
2023-05-14T10:39:57.107Z,54.24
2023-05-14T10:42:25.905Z,51.30
2023-05-14T10:45:15.216Z,53.55
2023-05-14T10:48:08.105Z,52.82
2023-05-14T10:50:34.943Z,51.90
2023-05-14T10:53:01.736Z,51.99
2023-05-14T10:55:44.777Z,52.64
2023-05-14T10:58:11.474Z,52.10
2023-05-14T11:00:38.289Z,53.89
2023-05-14T11:03:08.573Z,55.50
2023-05-14T11:05:35.368Z,55.06
2023-05-14T11:08:02.162Z,54.65
2023-05-14T11:10:28.953Z,53.99
2023-05-14T11:12:56.456Z,50.23
2023-05-14T11:15:24.329Z,52.07
2023-05-14T11:17:51.723Z,52.13
2023-05-14T11:20:18.479Z,52.79
2023-05-14T11:22:48.230Z,53.76
2023-05-14T11:25:16.665Z,55.54
2023-05-14T11:27:46.662Z,57.06
2023-05-14T11:30:19.660Z,55.46
2023-05-14T11:32:48.496Z,53.34
2023-05-14T11:35:18.170Z,53.73
2023-05-14T11:37:50.036Z,52.66
2023-05-14T11:40:16.998Z,52.64
2023-05-14T11:42:43.792Z,54.35
2023-05-14T11:45:13.979Z,54.77
2023-05-14T11:47:43.800Z,57.53
2023-05-14T11:50:13.435Z,57.05
2023-05-14T11:52:41.554Z,55.36
2023-05-14T11:55:15.735Z,54.96
2023-05-14T11:57:43.710Z,53.58
2023-05-14T12:00:37.072Z,54.46
2023-05-14T12:03:09.599Z,54.91
2023-05-14T12:05:39.249Z,54.54
2023-05-14T12:08:22.118Z,55.10
2023-05-14T12:10:52.829Z,53.71
2023-05-14T12:13:20.106Z,53.48
2023-05-14T12:15:48.287Z,53.27
2023-05-14T12:18:24.131Z,53.63
2023-05-14T12:20:54.044Z,52.36
2023-05-14T12:23:28.828Z,53.23
2023-05-14T12:25:55.668Z,53.16
2023-05-14T12:28:23.226Z,54.44
2023-05-14T12:30:56.402Z,59.21
2023-05-14T12:33:23.324Z,62.70
2023-05-14T12:35:50.241Z,65.10
2023-05-14T12:38:17.292Z,66.56
2023-05-14T12:40:44.039Z,63.14
2023-05-14T12:43:10.761Z,62.89
2023-05-14T12:45:38.955Z,61.49
2023-05-14T12:48:07.833Z,60.89
2023-05-14T12:50:34.654Z,56.96
2023-05-14T12:53:01.773Z,59.51
2023-05-14T12:55:31.709Z,55.01
2023-05-14T12:58:01.277Z,56.15
2023-05-14T13:00:28.571Z,53.55
2023-05-14T13:02:58.218Z,54.78
2023-05-14T13:05:25.818Z,52.23
2023-05-14T13:07:52.854Z,52.53
2023-05-14T13:10:20.576Z,52.13
2023-05-14T13:12:47.994Z,50.65
2023-05-14T13:15:14.779Z,51.22
2023-05-14T13:17:41.598Z,49.46
2023-05-14T13:20:09.832Z,45.40
2023-05-14T13:22:39.510Z,45.36
2023-05-14T13:25:08.168Z,48.17
2023-05-14T13:27:37.724Z,48.43
2023-05-14T13:30:04.812Z,49.89
2023-05-14T13:32:31.960Z,49.90
2023-05-14T13:34:58.730Z,52.26
2023-05-14T13:37:25.720Z,52.41
2023-05-14T13:39:52.451Z,53.27
2023-05-14T13:42:19.541Z,50.80
2023-05-14T13:44:46.844Z,51.28
2023-05-14T13:47:13.936Z,49.69
2023-05-14T13:49:42.691Z,46.64
2023-05-14T13:52:09.824Z,45.58
2023-05-14T13:54:36.562Z,46.57
2023-05-14T13:57:05.033Z,46.07
2023-05-14T13:59:32.308Z,48.50
2023-05-14T14:01:59.549Z,48.29
2023-05-14T14:04:28.953Z,46.15
2023-05-14T14:06:56.180Z,48.72
2023-05-14T14:09:23.329Z,49.61
2023-05-14T14:11:50.025Z,49.80
2023-05-14T14:14:17.276Z,50.13
2023-05-14T14:16:44.361Z,51.22
2023-05-14T14:19:16.045Z,51.11
2023-05-14T14:21:44.382Z,49.63
2023-05-14T14:24:11.551Z,50.57
2023-05-14T14:26:39.685Z,50.37
2023-05-14T14:29:06.850Z,51.42
2023-05-14T14:31:33.681Z,52.06
2023-05-14T14:34:00.816Z,52.05
2023-05-14T14:36:27.575Z,50.78
2023-05-14T14:38:54.322Z,51.30
2023-05-14T14:41:21.453Z,50.84
2023-05-14T14:43:48.159Z,49.75
2023-05-14T14:46:15.354Z,50.65
2023-05-14T14:48:42.550Z,50.90
2023-05-14T14:51:12.157Z,48.46
2023-05-14T14:53:39.321Z,49.53
2023-05-14T14:56:06.297Z,44.77
2023-05-14T14:58:33.040Z,45.73
2023-05-14T15:01:00.375Z,49.22
2023-05-14T15:03:27.695Z,47.39
2023-05-14T15:05:54.935Z,47.71
2023-05-14T15:08:25.069Z,46.78
2023-05-14T15:10:51.772Z,44.13
2023-05-14T15:13:19.157Z,46.58
2023-05-14T15:15:46.246Z,47.44
2023-05-14T15:18:13.268Z,46.71
2023-05-14T15:20:40.901Z,47.09
2023-05-14T15:23:13.332Z,46.93
2023-05-14T15:25:41.569Z,47.57
2023-05-14T15:28:08.376Z,46.47
2023-05-14T15:30:35.074Z,46.89
2023-05-14T15:33:02.243Z,46.86
2023-05-14T15:35:29.026Z,46.17
2023-05-14T15:37:56.115Z,47.71
2023-05-14T15:40:23.637Z,48.12
2023-05-14T15:42:50.904Z,48.07
2023-05-14T15:45:18.029Z,49.33
2023-05-14T15:47:44.788Z,49.25
2023-05-14T15:50:14.270Z,50.27
2023-05-14T15:52:41.441Z,51.20
2023-05-14T15:55:08.733Z,52.51
2023-05-14T15:57:38.204Z,52.48
2023-05-14T16:00:06.367Z,55.50
2023-05-14T16:02:33.568Z,56.02
2023-05-14T16:05:03.450Z,56.91
2023-05-14T16:07:30.582Z,61.44
2023-05-14T16:09:57.697Z,59.07
2023-05-14T16:12:25.455Z,57.67
2023-05-14T16:14:53.326Z,59.55
2023-05-14T16:17:20.009Z,57.49
2023-05-14T16:19:47.038Z,56.07
2023-05-14T16:22:16.466Z,52.85
2023-05-14T16:24:43.572Z,50.68
2023-05-14T16:27:11.464Z,48.97
2023-05-14T16:29:40.973Z,51.62
2023-05-14T16:32:08.144Z,50.97
2023-05-14T16:34:34.894Z,51.75
2023-05-14T16:37:02.085Z,55.52
2023-05-14T16:39:29.246Z,56.52
2023-05-14T16:41:56.332Z,57.49
2023-05-14T16:44:23.620Z,59.54
2023-05-14T16:46:50.856Z,61.25
2023-05-14T16:49:17.957Z,62.18
2023-05-14T16:51:45.952Z,61.85
2023-05-14T16:54:13.526Z,62.10
2023-05-14T16:56:40.265Z,68.05
2023-05-14T16:59:07.537Z,70.63
2023-05-14T17:01:36.037Z,70.83
2023-05-14T17:04:03.982Z,69.95
2023-05-14T17:06:32.454Z,69.86
2023-05-14T17:08:59.684Z,68.95
2023-05-14T17:11:33.686Z,69.08
2023-05-14T17:14:03.514Z,69.19
2023-05-14T17:16:30.287Z,69.11
2023-05-14T17:18:57.397Z,69.27
2023-05-14T17:21:24.158Z,68.01
2023-05-14T17:23:50.911Z,67.00
2023-05-14T17:26:17.859Z,65.51
2023-05-14T17:28:45.579Z,61.63
2023-05-14T17:31:12.740Z,62.01
2023-05-14T17:33:42.376Z,61.72
2023-05-14T17:36:10.320Z,65.76
2023-05-14T17:38:38.371Z,61.95
2023-05-14T17:41:05.568Z,60.67
2023-05-14T17:43:32.712Z,63.30
2023-05-14T17:45:59.368Z,65.54
2023-05-14T17:48:26.654Z,66.60
2023-05-14T17:50:53.390Z,67.94
2023-05-14T17:53:32.444Z,68.75
2023-05-14T17:55:59.574Z,68.81
2023-05-14T17:58:26.345Z,69.49
2023-05-14T18:00:53.128Z,70.47
2023-05-14T18:03:20.415Z,69.26
2023-05-14T18:05:50.064Z,70.08
2023-05-14T18:08:19.666Z,70.11
2023-05-14T18:10:46.754Z,68.45
2023-05-14T18:13:13.838Z,65.58
2023-05-14T18:15:41.644Z,63.99
2023-05-14T18:18:09.738Z,65.47
2023-05-14T18:20:39.325Z,65.97
2023-05-14T18:23:06.485Z,66.66
2023-05-14T18:25:33.231Z,66.17
2023-05-14T18:28:00.370Z,66.92
2023-05-14T18:30:27.478Z,67.27
2023-05-14T18:32:57.230Z,68.08
2023-05-14T18:35:24.552Z,68.59
2023-05-14T18:37:51.529Z,69.55
2023-05-14T18:40:18.992Z,70.49
2023-05-14T18:42:45.799Z,69.79
2023-05-14T18:45:12.592Z,69.59
2023-05-14T18:47:40.013Z,70.40
2023-05-14T18:50:09.056Z,71.24
2023-05-14T18:52:38.658Z,72.19
2023-05-14T18:55:07.210Z,73.94
2023-05-14T18:57:34.182Z,75.32
2023-05-14T19:00:02.757Z,76.51
2023-05-14T19:02:29.621Z,78.02
2023-05-14T19:04:58.149Z,79.96
2023-05-14T19:07:24.940Z,80.64
2023-05-14T19:09:52.138Z,82.79
2023-05-14T19:12:18.854Z,83.56
2023-05-14T19:14:46.248Z,82.71
2023-05-14T19:17:13.418Z,83.18
2023-05-14T19:19:40.538Z,84.21
2023-05-14T19:22:07.924Z,83.96
2023-05-14T19:24:35.286Z,84.62
2023-05-14T19:27:02.444Z,84.16
2023-05-14T19:29:29.193Z,83.03
2023-05-14T19:31:58.993Z,83.86
2023-05-14T19:34:28.657Z,83.10
2023-05-14T19:36:58.214Z,84.89
2023-05-14T19:39:27.872Z,85.80
2023-05-14T19:41:55.020Z,84.59
2023-05-14T19:44:22.140Z,84.54
2023-05-14T19:46:48.971Z,83.12
2023-05-14T19:49:16.208Z,83.22
2023-05-14T19:51:42.914Z,82.44
2023-05-14T19:54:10.169Z,82.95
2023-05-14T19:56:37.283Z,83.53
2023-05-14T19:59:04.378Z,82.31
2023-05-14T20:01:31.542Z,83.65
2023-05-14T20:03:58.315Z,82.07
2023-05-14T20:06:26.141Z,82.02
2023-05-14T20:08:53.246Z,81.56
2023-05-14T20:11:22.598Z,82.21
2023-05-14T20:13:50.048Z,82.66
2023-05-14T20:16:18.497Z,81.70
2023-05-14T20:18:46.115Z,82.17
2023-05-14T20:21:15.858Z,82.59
2023-05-14T20:23:42.971Z,81.99
2023-05-14T20:26:10.032Z,81.74
2023-05-14T20:28:37.364Z,83.20
2023-05-14T20:31:04.592Z,82.25
2023-05-14T20:33:34.271Z,82.72
2023-05-14T20:36:01.415Z,82.97
2023-05-14T20:38:28.207Z,81.84
2023-05-14T20:40:55.029Z,79.94
2023-05-14T20:43:22.534Z,78.98
2023-05-14T20:45:49.544Z,78.38
2023-05-14T20:48:16.907Z,75.95
2023-05-14T20:50:47.094Z,82.92
2023-05-14T20:53:14.493Z,83.41
2023-05-14T20:55:41.680Z,82.02
2023-05-14T20:58:08.428Z,80.64
2023-05-14T21:00:38.138Z,80.61
2023-05-14T21:03:07.882Z,80.91
2023-05-14T21:05:37.655Z,79.20
2023-05-14T21:08:05.156Z,79.08
2023-05-14T21:10:32.279Z,78.13
2023-05-14T21:13:01.734Z,76.02
2023-05-14T21:15:29.653Z,79.94
2023-05-14T21:17:57.473Z,80.09
2023-05-14T21:22:52.395Z,75.06
2023-05-14T21:25:19.485Z,79.55
2023-05-14T21:27:48.987Z,83.64
2023-05-14T21:30:16.460Z,86.20
2023-05-14T21:32:43.985Z,86.78
2023-05-14T21:35:11.458Z,87.06
2023-05-14T21:37:38.178Z,86.64
2023-05-14T21:40:08.410Z,84.75
2023-05-14T21:42:40.867Z,84.97
2023-05-14T21:45:08.837Z,86.57
2023-05-14T21:47:35.611Z,85.45
2023-05-14T21:50:02.644Z,86.43
2023-05-14T21:52:29.405Z,86.41
2023-05-14T21:54:56.429Z,85.76
2023-05-14T21:57:25.605Z,87.23
2023-05-14T21:59:54.190Z,88.46
2023-05-14T22:02:22.281Z,88.43
2023-05-14T22:04:49.468Z,87.41
2023-05-14T22:07:19.255Z,86.35
2023-05-14T22:09:46.365Z,84.00
2023-05-14T22:12:17.560Z,86.00
2023-05-14T22:14:54.745Z,86.20
2023-05-14T22:17:21.872Z,84.57
2023-05-14T22:19:51.488Z,84.03
2023-05-14T22:22:20.997Z,84.61
2023-05-14T22:24:48.134Z,85.13
2023-05-14T22:27:15.245Z,82.87
2023-05-14T22:29:42.326Z,83.34
2023-05-14T22:32:09.042Z,83.12
2023-05-14T22:34:41.069Z,80.97
2023-05-14T22:37:07.931Z,82.40
2023-05-14T22:39:34.709Z,80.84
2023-05-14T22:42:01.794Z,81.75
2023-05-14T22:44:29.978Z,79.05
2023-05-14T22:46:59.948Z,79.84
2023-05-14T22:49:30.684Z,80.33
2023-05-14T22:51:57.461Z,79.20
2023-05-14T22:54:24.725Z,79.22
2023-05-14T22:56:51.462Z,77.53
2023-05-14T22:59:18.193Z,79.57
2023-05-14T23:01:45.000Z,79.77
2023-05-14T23:04:13.027Z,79.02
2023-05-14T23:06:40.245Z,77.92
2023-05-14T23:09:09.822Z,79.60
2023-05-14T23:11:37.513Z,79.11
2023-05-14T23:14:04.182Z,79.29
2023-05-14T23:16:30.972Z,80.43
2023-05-14T23:18:58.053Z,79.36
2023-05-14T23:21:25.288Z,78.94
2023-05-14T23:23:51.986Z,79.03
2023-05-14T23:26:19.038Z,80.68
2023-05-14T23:28:50.881Z,81.63
2023-05-14T23:31:18.022Z,81.70
2023-05-14T23:33:45.092Z,81.95
2023-05-14T23:36:12.204Z,81.37
2023-05-14T23:38:38.951Z,81.43
2023-05-14T23:41:05.737Z,79.66
2023-05-14T23:43:32.488Z,81.84
2023-05-14T23:45:59.447Z,80.86
2023-05-14T23:48:26.179Z,80.27
2023-05-14T23:50:53.380Z,80.77
2023-05-14T23:53:21.116Z,81.51
2023-05-14T23:55:47.864Z,80.60
2023-05-14T23:58:15.094Z,82.24
